Charco, Texas
Current Conditions -  °F | °C
As of 6:55 PM on Tuesday 21 Oct 2014 (Local Time) from KBEA Reporting Station
Clear Clear  
Wind Chill: 27°   Ceiling: Unl
Heat Index: 27°   Visibility: 10mi
Dew Point: 16°   Wind: 8mph
Humidity: 50%   Direction: 100°E
Pressure: 29.95"   Gusts: NA
Location:  28.6563°N, 97.4287°W
Report Text: KBEA 212355Z AUTO 10007KT 10SM CLR 27/16 A2995 RMK AO2 T02690158 10308 20269
Loading
Personal Weather Stations






























Interactive Weather Map
Tropical Storm Tracking
New forecast layout! Learn more

10-Day Weather Forecast

Advertisements
Track Severe Weather on mobile